Time,TemperatureF,DewpointF,PressureIn,WindDirection,WindDirectionDegrees,WindSpeedMPH,WindSpeedGustMPH,Humidity,HourlyPrecipIn,Conditions,Clouds,dailyrainin,SoftwareType,DateUTC
2013-11-20 00:00:00,15.3,8.5,32.31,NNE,15,5.8,9.4,74,0.00,,---,0.00,VWS V14.01,2013-11-20 05:00:00,
2013-11-20 00:05:00,15.1,8.3,32.31,NNE,16,10.3,13.0,74,0.00,,---,0.00,VWS V14.01,2013-11-20 05:05:00,
2013-11-20 00:10:00,14.9,8.4,32.31,NNE,29,4.5,10.7,75,0.00,,---,0.00,VWS V14.01,2013-11-20 05:10:00,
2013-11-20 00:15:00,14.5,8.1,32.31,NNE,15,4.0,10.7,75,0.00,,---,0.00,VWS V14.01,2013-11-20 05:15:00,
2013-11-20 00:20:00,14.4,7.9,32.31,North,360,5.8,11.2,75,0.00,,---,0.00,VWS V14.01,2013-11-20 05:20:00,
2013-11-20 00:25:00,14.2,8.0,32.31,North,359,4.0,9.8,76,0.00,,---,0.00,VWS V14.01,2013-11-20 05:25:00,
2013-11-20 00:30:00,13.8,7.7,32.31,North,360,8.5,8.9,76,0.00,,---,0.00,VWS V14.01,2013-11-20 05:30:00,
2013-11-20 00:35:00,13.6,7.5,32.31,North,9,4.5,9.4,76,0.00,,---,0.00,VWS V14.01,2013-11-20 05:35:00,
2013-11-20 00:40:00,13.3,7.1,32.31,North,5,4.5,6.3,76,0.00,,---,0.00,VWS V14.01,2013-11-20 05:40:00,
2013-11-20 00:45:00,12.9,7.1,32.31,NNW,346,4.0,8.1,77,0.00,,---,0.00,VWS V14.01,2013-11-20 05:45:00,
2013-11-20 00:50:00,12.4,6.6,32.31,NNW,347,6.3,6.3,77,0.00,,---,0.00,VWS V14.01,2013-11-20 05:50:00,
2013-11-20 00:55:00,12.2,6.9,32.31,North,2,4.9,6.7,79,0.00,,---,0.00,VWS V14.01,2013-11-20 05:55:00,
2013-11-20 01:00:00,12.2,6.9,32.31,North,359,4.0,8.5,79,0.00,,---,0.00,VWS V14.01,2013-11-20 06:00:00,
2013-11-20 01:05:00,12.2,6.9,32.31,North,359,5.4,6.7,79,0.00,,---,0.00,VWS V14.01,2013-11-20 06:05:00,
2013-11-20 01:10:00,12.2,6.7,32.31,NNE,25,4.0,8.1,78,0.00,,---,0.00,VWS V14.01,2013-11-20 06:10:00,
2013-11-20 01:15:00,12.2,6.7,32.31,North,359,6.7,7.6,78,0.00,,---,0.00,VWS V14.01,2013-11-20 06:15:00,
2013-11-20 01:20:00,12.0,6.5,32.31,NNE,14,4.9,7.2,78,0.00,,---,0.00,VWS V14.01,2013-11-20 06:20:00,
2013-11-20 01:25:00,12.2,6.4,32.31,NNE,14,6.7,8.9,77,0.00,,---,0.00,VWS V14.01,2013-11-20 06:25:00,
2013-11-20 01:30:00,12.2,6.4,32.31,NNE,32,5.4,8.5,77,0.00,,---,0.00,VWS V14.01,2013-11-20 06:30:00,
2013-11-20 01:35:00,12.0,6.2,32.31,NE,39,4.0,7.2,77,0.00,,---,0.00,VWS V14.01,2013-11-20 06:35:00,
2013-11-20 01:40:00,11.8,6.0,32.31,NNE,26,6.3,9.4,77,0.00,,---,0.00,VWS V14.01,2013-11-20 06:40:00,
2013-11-20 01:45:00,11.8,5.8,32.31,NNE,21,4.5,10.3,76,0.00,,---,0.00,VWS V14.01,2013-11-20 06:45:00,
2013-11-20 01:50:00,11.7,5.6,32.31,NE,52,4.9,8.5,76,0.00,,---,0.00,VWS V14.01,2013-11-20 06:50:00,
2013-11-20 01:55:00,11.5,5.7,32.31,NNE,32,6.7,6.7,77,0.00,,---,0.00,VWS V14.01,2013-11-20 06:55:00,
2013-11-20 02:00:00,11.1,5.3,32.31,ENE,59,2.7,7.2,77,0.00,,---,0.00,VWS V14.01,2013-11-20 07:00:00,
2013-11-20 02:05:00,10.9,5.4,32.31,NE,36,5.4,5.8,78,0.00,,---,0.00,VWS V14.01,2013-11-20 07:05:00,
2013-11-20 02:10:00,10.9,5.4,32.31,NNE,22,5.4,7.2,78,0.00,,---,0.00,VWS V14.01,2013-11-20 07:10:00,
2013-11-20 02:15:00,10.9,5.2,32.31,NE,36,3.1,7.2,77,0.00,,---,0.00,VWS V14.01,2013-11-20 07:15:00,
2013-11-20 02:20:00,10.9,5.2,32.31,North,9,5.4,8.1,77,0.00,,---,0.00,VWS V14.01,2013-11-20 07:20:00,
2013-11-20 02:25:00,10.9,5.2,32.31,North,7,5.8,8.5,77,0.00,,---,0.00,VWS V14.01,2013-11-20 07:25:00,
2013-11-20 02:30:00,10.9,5.2,32.31,NNE,16,4.9,7.6,77,0.00,,---,0.00,VWS V14.01,2013-11-20 07:30:00,
2013-11-20 02:35:00,10.8,5.0,32.31,NNE,28,3.6,6.3,77,0.00,,---,0.00,VWS V14.01,2013-11-20 07:35:00,
2013-11-20 02:40:00,10.6,4.8,32.31,NNE,26,3.6,5.8,77,0.00,,---,0.00,VWS V14.01,2013-11-20 07:40:00,
2013-11-20 02:45:00,10.2,4.5,32.31,NNE,22,2.2,4.9,77,0.00,,---,0.00,VWS V14.01,2013-11-20 07:45:00,
2013-11-20 02:50:00,9.3,3.9,32.31,NNE,21,3.1,4.5,78,0.00,,---,0.00,VWS V14.01,2013-11-20 07:50:00,
2013-11-20 02:55:00,9.7,4.2,32.31,NNE,30,2.7,5.4,78,0.00,,---,0.00,VWS V14.01,2013-11-20 07:55:00,
2013-11-20 03:00:00,9.5,4.3,32.31,NE,42,2.2,4.9,79,0.00,,---,0.00,VWS V14.01,2013-11-20 08:00:00,
2013-11-20 03:05:00,9.1,4.0,32.31,NE,42,1.3,3.1,79,0.00,,---,0.00,VWS V14.01,2013-11-20 08:05:00,
2013-11-20 03:10:00,8.6,3.7,32.31,NE,42,2.2,4.0,80,0.00,,---,0.00,VWS V14.01,2013-11-20 08:10:00,
2013-11-20 03:15:00,8.2,3.6,32.31,NE,42,2.7,3.6,81,0.00,,---,0.00,VWS V14.01,2013-11-20 08:15:00,
2013-11-20 03:20:00,7.5,3.5,32.31,NE,42,2.7,3.1,83,0.00,,---,0.00,VWS V14.01,2013-11-20 08:20:00,
2013-11-20 03:25:00,6.8,3.3,32.31,NE,40,2.2,3.1,85,0.00,,---,0.00,VWS V14.01,2013-11-20 08:25:00,
2013-11-20 03:30:00,6.3,3.0,32.31,NNE,25,2.7,3.6,86,0.00,,---,0.00,VWS V14.01,2013-11-20 08:30:00,
2013-11-20 03:35:00,6.1,2.8,32.31,NNE,25,0.9,2.7,86,0.00,,---,0.00,VWS V14.01,2013-11-20 08:35:00,
2013-11-20 03:40:00,6.1,3.0,32.31,NNE,25,0.9,1.8,87,0.00,,---,0.00,VWS V14.01,2013-11-20 08:40:00,
2013-11-20 03:45:00,5.9,3.1,32.31,NNE,25,1.3,1.8,88,0.00,,---,0.00,VWS V14.01,2013-11-20 08:45:00,
2013-11-20 03:50:00,5.9,3.1,32.31,NNE,25,0.0,1.3,88,0.00,,---,0.00,VWS V14.01,2013-11-20 08:50:00,
2013-11-20 03:55:00,5.9,3.4,32.31,NNE,25,0.0,0.0,89,0.00,,---,0.00,VWS V14.01,2013-11-20 08:55:00,
2013-11-20 04:05:00,5.9,3.8,32.31,NNE,25,1.3,2.2,91,0.00,,---,0.00,VWS V14.01,2013-11-20 09:05:00,
2013-11-20 04:10:00,5.9,4.1,32.31,NNE,25,1.3,2.7,92,0.00,,---,0.00,VWS V14.01,2013-11-20 09:10:00,
2013-11-20 04:15:00,6.1,4.3,32.31,NNE,25,1.8,2.2,92,0.00,,---,0.00,VWS V14.01,2013-11-20 09:15:00,
2013-11-20 04:20:00,5.9,4.1,32.31,NNE,25,0.9,2.7,92,0.00,,---,0.00,VWS V14.01,2013-11-20 09:20:00,
2013-11-20 04:25:00,5.5,3.5,32.31,NNE,25,1.3,1.8,91,0.00,,---,0.00,VWS V14.01,2013-11-20 09:25:00,
2013-11-20 04:30:00,5.5,3.5,32.31,NNE,25,0.9,1.8,91,0.00,,---,0.00,VWS V14.01,2013-11-20 09:30:00,
2013-11-20 04:35:00,5.5,3.7,32.31,NNE,25,1.8,2.2,92,0.00,,---,0.00,VWS V14.01,2013-11-20 09:35:00,
2013-11-20 04:40:00,5.7,3.9,32.31,NNE,25,1.8,2.2,92,0.00,,---,0.00,VWS V14.01,2013-11-20 09:40:00,
2013-11-20 04:50:00,5.4,3.5,32.31,NNE,25,0.9,1.3,92,0.00,,---,0.00,VWS V14.01,2013-11-20 09:50:00,
2013-11-20 05:00:00,5.2,3.4,32.31,NNE,25,2.2,2.2,92,0.00,,---,0.00,VWS V14.01,2013-11-20 10:00:00,
2013-11-20 05:05:00,5.7,4.1,32.31,NNE,25,2.7,2.7,93,0.00,,---,0.00,VWS V14.01,2013-11-20 10:05:00,
2013-11-20 05:10:00,5.9,4.1,32.31,NNE,28,1.8,2.7,92,0.00,,---,0.00,VWS V14.01,2013-11-20 10:10:00,
2013-11-20 05:15:00,5.7,3.7,32.31,NNE,25,0.9,2.2,91,0.00,,---,0.00,VWS V14.01,2013-11-20 10:15:00,
2013-11-20 05:20:00,5.2,3.1,32.31,NNE,25,0.9,1.3,91,0.00,,---,0.00,VWS V14.01,2013-11-20 10:20:00,
2013-11-20 05:25:00,5.0,3.0,32.31,NNE,26,1.3,1.8,91,0.00,,---,0.00,VWS V14.01,2013-11-20 10:25:00,
2013-11-20 05:30:00,5.2,3.4,32.31,NNE,25,1.3,1.8,92,0.00,,---,0.00,VWS V14.01,2013-11-20 10:30:00,
2013-11-20 05:35:00,5.2,3.4,32.31,NNE,25,1.3,1.8,92,0.00,,---,0.00,VWS V14.01,2013-11-20 10:35:00,
2013-11-20 05:40:00,5.0,3.2,32.31,NNE,25,1.3,1.3,92,0.00,,---,0.00,VWS V14.01,2013-11-20 10:40:00,
2013-11-20 05:45:00,4.8,3.0,32.31,NNE,26,0.0,1.8,92,0.00,,---,0.00,VWS V14.01,2013-11-20 10:45:00,
2013-11-20 05:50:00,3.9,1.9,32.31,NNE,25,1.8,1.8,91,0.00,,---,0.00,VWS V14.01,2013-11-20 10:50:00,
2013-11-20 06:00:00,3.6,1.8,32.31,NNE,25,0.9,2.7,92,0.00,,---,0.00,VWS V14.01,2013-11-20 11:00:00,
2013-11-20 06:05:00,3.9,2.3,32.31,NNE,25,0.0,0.9,93,0.00,,---,0.00,VWS V14.01,2013-11-20 11:05:00,
2013-11-20 06:10:00,4.1,2.5,32.31,NNE,25,0.0,0.0,93,0.00,,---,0.00,VWS V14.01,2013-11-20 11:10:00,
2013-11-20 06:15:00,4.1,2.5,32.31,NNE,25,0.0,0.0,93,0.00,,---,0.00,VWS V14.01,2013-11-20 11:15:00,
2013-11-20 06:20:00,4.1,2.8,32.31,NNE,26,0.0,0.0,94,0.00,,---,0.00,VWS V14.01,2013-11-20 11:20:00,
2013-11-20 06:25:00,4.5,2.9,32.31,NNE,25,0.0,0.0,93,0.00,,---,0.00,VWS V14.01,2013-11-20 11:25:00,
2013-11-20 06:30:00,4.1,2.5,32.31,NNE,25,0.0,1.3,93,0.00,,---,0.00,VWS V14.01,2013-11-20 11:30:00,
2013-11-20 06:35:00,3.2,1.4,32.31,NNE,25,0.0,0.0,92,0.00,,---,0.00,VWS V14.01,2013-11-20 11:35:00,
2013-11-20 06:40:00,2.3,0.5,32.31,NNE,25,0.0,0.0,92,0.00,,---,0.00,VWS V14.01,2013-11-20 11:40:00,
2013-11-20 06:50:00,2.8,1.3,32.31,NNE,25,0.0,0.0,93,0.00,,---,0.00,VWS V14.01,2013-11-20 11:50:00,
2013-11-20 06:55:00,3.0,1.7,32.31,NNE,25,1.3,1.8,94,0.00,,---,0.00,VWS V14.01,2013-11-20 11:55:00,
2013-11-20 07:00:00,3.2,2.1,32.31,NNE,25,0.0,1.8,95,0.00,,---,0.00,VWS V14.01,2013-11-20 12:00:00,
2013-11-20 07:10:00,2.5,1.4,32.31,NNE,25,1.3,2.7,95,0.00,,---,0.00,VWS V14.01,2013-11-20 12:10:00,
2013-11-20 07:15:00,2.7,1.8,32.31,NNE,21,2.7,3.1,96,0.00,,---,0.00,VWS V14.01,2013-11-20 12:15:00,
2013-11-20 07:20:00,3.2,2.5,32.31,NNE,25,2.7,3.6,97,0.00,,---,0.00,VWS V14.01,2013-11-20 12:20:00,
2013-11-20 07:25:00,3.7,3.1,32.31,South,185,2.7,4.0,97,0.00,,---,0.00,VWS V14.01,2013-11-20 12:25:00,
2013-11-20 07:30:00,4.1,3.7,32.31,South,185,1.3,4.0,98,0.00,,---,0.00,VWS V14.01,2013-11-20 12:30:00,
2013-11-20 07:35:00,4.5,4.2,32.31,South,185,3.1,3.1,99,0.00,,---,0.00,VWS V14.01,2013-11-20 12:35:00,
2013-11-20 07:40:00,5.2,5.2,32.31,South,185,0.4,3.1,100,0.00,,---,0.00,VWS V14.01,2013-11-20 12:40:00,
2013-11-20 07:45:00,5.9,5.9,32.31,South,185,1.8,2.7,100,0.00,,---,0.00,VWS V14.01,2013-11-20 12:45:00,
2013-11-20 07:50:00,6.3,6.0,32.31,South,185,1.3,3.6,99,0.00,,---,0.00,VWS V14.01,2013-11-20 12:50:00,
2013-11-20 07:55:00,6.6,5.9,32.31,South,187,3.1,3.1,97,0.00,,---,0.00,VWS V14.01,2013-11-20 12:55:00,
2013-11-20 08:00:00,6.8,5.9,32.31,South,188,0.0,3.1,96,0.00,,---,0.00,VWS V14.01,2013-11-20 13:00:00,
2013-11-20 08:05:00,7.0,5.8,32.31,South,185,0.0,1.8,95,0.00,,---,0.00,VWS V14.01,2013-11-20 13:05:00,
2013-11-20 08:10:00,7.2,6.0,32.31,South,185,2.2,3.1,95,0.00,,---,0.00,VWS V14.01,2013-11-20 13:10:00,
2013-11-20 08:15:00,7.7,6.1,32.31,South,185,1.8,3.6,93,0.00,,---,0.00,VWS V14.01,2013-11-20 13:15:00,
2013-11-20 08:25:00,8.1,6.2,32.31,South,185,0.9,2.7,92,0.00,,---,0.00,VWS V14.01,2013-11-20 13:25:00,
2013-11-20 08:30:00,8.1,6.2,32.31,South,185,0.0,1.3,92,0.00,,---,0.00,VWS V14.01,2013-11-20 13:30:00,
2013-11-20 08:40:00,9.0,7.3,32.31,South,184,0.0,1.8,93,0.00,,---,0.00,VWS V14.01,2013-11-20 13:40:00,
2013-11-20 08:50:00,11.5,8.4,32.31,South,185,0.0,0.4,87,0.00,,---,0.00,VWS V14.01,2013-11-20 13:50:00,
2013-11-20 08:55:00,12.6,9.2,32.31,South,185,1.8,1.8,86,0.00,,---,0.00,VWS V14.01,2013-11-20 13:55:00,
2013-11-20 09:00:00,14.0,7.8,32.31,South,185,2.7,3.1,76,0.00,,---,0.00,VWS V14.01,2013-11-20 14:00:00,
2013-11-20 09:05:00,14.9,8.7,32.31,East,95,2.2,4.0,76,0.00,,---,0.00,VWS V14.01,2013-11-20 14:05:00,
2013-11-20 09:10:00,15.3,8.2,32.31,East,95,0.4,3.1,73,0.00,,---,0.00,VWS V14.01,2013-11-20 14:10:00,
2013-11-20 09:15:00,14.5,7.8,32.31,ENE,76,1.3,4.0,74,0.00,,---,0.00,VWS V14.01,2013-11-20 14:15:00,
2013-11-20 09:20:00,14.4,7.6,32.31,NE,54,4.0,4.9,74,0.00,,---,0.00,VWS V14.01,2013-11-20 14:20:00,
2013-11-20 09:25:00,15.4,7.7,32.31,ENE,63,1.3,4.5,71,0.00,,---,0.00,VWS V14.01,2013-11-20 14:25:00,
2013-11-20 09:30:00,16.0,8.2,32.31,ENE,67,3.1,4.9,71,0.00,,---,0.00,VWS V14.01,2013-11-20 14:30:00,
2013-11-20 09:35:00,17.6,8.9,32.31,ENE,67,1.8,4.0,68,0.00,,---,0.00,VWS V14.01,2013-11-20 14:35:00,
2013-11-20 09:40:00,17.8,8.4,32.31,ENE,66,0.0,2.7,66,0.00,,---,0.00,VWS V14.01,2013-11-20 14:40:00,
2013-11-20 09:45:00,17.8,8.4,32.31,East,91,0.0,4.5,66,0.00,,---,0.00,VWS V14.01,2013-11-20 14:45:00,
2013-11-20 09:50:00,18.5,9.1,32.31,East,91,1.8,4.5,66,0.00,,---,0.00,VWS V14.01,2013-11-20 14:50:00,
2013-11-20 10:01:00,19.8,9.2,32.31,ENE,74,0.0,3.6,63,0.00,,---,0.00,VWS V14.01,2013-11-20 15:01:00,
2013-11-20 10:10:00,20.3,9.7,32.31,ENE,60,3.1,4.0,63,0.00,,---,0.00,VWS V14.01,2013-11-20 15:10:00,
2013-11-20 10:15:00,20.8,10.2,32.31,ENE,61,0.0,3.6,63,0.00,,---,0.00,VWS V14.01,2013-11-20 15:15:00,
2013-11-20 10:20:00,20.5,9.9,32.31,ENE,61,2.2,3.1,63,0.00,,---,0.00,VWS V14.01,2013-11-20 15:20:00,
2013-11-20 10:30:00,21.4,10.8,32.31,ENE,61,0.9,3.1,63,0.00,,---,0.00,VWS V14.01,2013-11-20 15:30:00,
2013-11-20 10:35:00,21.6,10.9,32.31,SE,128,2.2,4.5,63,0.00,,---,0.00,VWS V14.01,2013-11-20 15:35:00,
2013-11-20 10:40:00,21.6,10.9,32.31,SE,128,0.0,3.1,63,0.00,,---,0.00,VWS V14.01,2013-11-20 15:40:00,
2013-11-20 10:45:00,22.3,11.2,32.31,East,95,2.2,4.0,62,0.00,,---,0.00,VWS V14.01,2013-11-20 15:45:00,
2013-11-20 10:50:00,24.1,13.0,32.31,ENE,67,3.1,3.1,62,0.00,,---,0.00,VWS V14.01,2013-11-20 15:50:00,
2013-11-20 10:55:00,24.1,13.0,32.31,East,81,3.6,4.5,62,0.00,,---,0.00,VWS V14.01,2013-11-20 15:55:00,
2013-11-20 11:00:00,23.2,12.1,32.31,ENE,76,2.2,4.0,62,0.00,,---,0.00,VWS V14.01,2013-11-20 16:00:00,
2013-11-20 11:05:00,23.7,12.6,32.31,ESE,108,0.0,3.1,62,0.00,,---,0.00,VWS V14.01,2013-11-20 16:05:00,
2013-11-20 11:10:00,25.5,14.3,32.31,ESE,111,4.0,4.0,62,0.00,,---,0.00,VWS V14.01,2013-11-20 16:10:00,
2013-11-20 11:15:00,24.4,13.3,32.31,ENE,73,2.7,4.9,62,0.00,,---,0.00,VWS V14.01,2013-11-20 16:15:00,
2013-11-20 11:20:00,24.4,13.3,32.31,ENE,74,0.0,3.6,62,0.00,,---,0.00,VWS V14.01,2013-11-20 16:20:00,
2013-11-20 11:25:00,24.3,13.1,32.31,NE,45,2.2,5.8,62,0.00,,---,0.00,VWS V14.01,2013-11-20 16:25:00,
2013-11-20 11:30:00,25.7,14.1,32.31,NE,45,1.8,2.7,61,0.00,,---,0.00,VWS V14.01,2013-11-20 16:30:00,
2013-11-20 11:40:00,26.2,14.6,32.31,NNE,26,0.0,1.8,61,0.00,,---,0.00,VWS V14.01,2013-11-20 16:40:00,
2013-11-20 11:45:00,27.1,15.5,32.31,NNE,30,2.2,2.7,61,0.00,,---,0.00,VWS V14.01,2013-11-20 16:45:00,
2013-11-20 11:50:00,27.3,15.7,32.31,ENE,59,1.3,4.0,61,0.00,,---,0.00,VWS V14.01,2013-11-20 16:50:00,
2013-11-20 11:55:00,27.1,15.5,32.31,East,95,0.0,3.1,61,0.00,,---,0.00,VWS V14.01,2013-11-20 16:55:00,
2013-11-20 12:00:00,25.2,14.0,32.31,North,8,0.0,0.0,62,0.00,,---,0.00,VWS V14.01,2013-11-20 17:00:00,
2013-11-20 12:05:00,26.8,15.1,32.31,NE,52,0.4,3.6,61,0.00,,---,0.00,VWS V14.01,2013-11-20 17:05:00,
2013-11-20 12:10:00,27.7,16.0,32.31,ENE,67,3.1,4.0,61,0.00,,---,0.00,VWS V14.01,2013-11-20 17:10:00,
2013-11-20 12:15:00,26.6,15.0,32.31,East,90,0.0,4.9,61,0.00,,---,0.00,VWS V14.01,2013-11-20 17:15:00,
2013-11-20 12:20:00,26.1,14.5,32.31,East,90,0.0,0.9,61,0.00,,---,0.00,VWS V14.01,2013-11-20 17:20:00,
2013-11-20 12:25:00,25.3,14.2,32.31,NE,52,0.0,2.2,62,0.00,,---,0.00,VWS V14.01,2013-11-20 17:25:00,
2013-11-20 12:30:00,26.4,14.8,32.31,NE,54,0.0,1.3,61,0.00,,---,0.00,VWS V14.01,2013-11-20 17:30:00,
2013-11-20 12:35:00,27.7,16.0,32.31,NE,56,0.0,0.4,61,0.00,,---,0.00,VWS V14.01,2013-11-20 17:35:00,
2013-11-20 12:40:00,28.2,16.5,32.31,North,359,2.7,2.7,61,0.00,,---,0.00,VWS V14.01,2013-11-20 17:40:00,
2013-11-20 12:50:00,27.7,16.0,32.31,SSW,205,3.1,4.9,61,0.00,,---,0.00,VWS V14.01,2013-11-20 17:50:00,
2013-11-20 12:55:00,29.3,17.5,32.31,SSW,205,0.4,3.6,61,0.00,,---,0.00,VWS V14.01,2013-11-20 17:55:00,
2013-11-20 13:00:00,30.9,19.1,32.31,SSW,205,0.0,0.9,61,0.00,,---,0.00,VWS V14.01,2013-11-20 18:00:00,
2013-11-20 13:05:00,32.0,19.7,32.31,SSW,205,0.0,0.9,60,0.00,,---,0.00,VWS V14.01,2013-11-20 18:05:00,
2013-11-20 13:10:00,31.1,18.9,32.31,SW,221,3.6,4.9,60,0.00,,---,0.00,VWS V14.01,2013-11-20 18:10:00,
2013-11-20 13:15:00,31.5,19.2,32.31,SW,222,0.0,4.9,60,0.00,,---,0.00,VWS V14.01,2013-11-20 18:15:00,
2013-11-20 13:20:00,31.3,19.0,32.31,SSW,209,4.5,4.5,60,0.00,,---,0.00,VWS V14.01,2013-11-20 18:20:00,
2013-11-20 13:25:00,31.1,18.9,32.31,SSW,202,0.4,4.5,60,0.00,,---,0.00,VWS V14.01,2013-11-20 18:25:00,
2013-11-20 13:30:00,31.1,18.9,32.31,SSW,209,0.0,1.3,60,0.00,,---,0.00,VWS V14.01,2013-11-20 18:30:00,
2013-11-20 13:40:00,31.1,18.9,32.31,NE,54,3.6,4.0,60,0.00,,---,0.00,VWS V14.01,2013-11-20 18:40:00,
2013-11-20 13:45:00,31.1,18.9,32.31,East,95,0.0,3.6,60,0.00,,---,0.00,VWS V14.01,2013-11-20 18:45:00,
2013-11-20 13:50:00,31.6,19.4,32.31,NE,53,0.0,2.7,60,0.00,,---,0.00,VWS V14.01,2013-11-20 18:50:00,
2013-11-20 13:55:00,32.4,20.0,32.31,NE,52,0.0,0.0,60,0.00,,---,0.00,VWS V14.01,2013-11-20 18:55:00,
2013-11-20 14:00:00,31.3,19.0,32.31,ENE,59,0.0,2.2,60,0.00,,---,0.00,VWS V14.01,2013-11-20 19:00:00,
2013-11-20 14:05:00,31.1,18.9,32.31,ENE,67,0.0,3.6,60,0.00,,---,0.00,VWS V14.01,2013-11-20 19:05:00,
2013-11-20 14:10:00,30.9,19.1,32.31,ENE,71,0.0,1.3,61,0.00,,---,0.00,VWS V14.01,2013-11-20 19:10:00,
2013-11-20 14:15:00,31.3,19.0,32.31,South,183,3.1,3.1,60,0.00,,---,0.00,VWS V14.01,2013-11-20 19:15:00,
2013-11-20 14:25:00,31.8,19.5,32.31,South,185,1.3,4.0,60,0.00,,---,0.00,VWS V14.01,2013-11-20 19:25:00,
2013-11-20 14:30:00,32.4,20.0,32.31,South,185,0.0,3.6,60,0.00,,---,0.00,VWS V14.01,2013-11-20 19:30:00,
2013-11-20 14:35:00,32.4,20.0,32.31,South,185,0.0,0.0,60,0.00,,---,0.00,VWS V14.01,2013-11-20 19:35:00,
2013-11-20 14:40:00,30.4,18.6,32.31,ENE,78,2.7,5.4,61,0.00,,---,0.00,VWS V14.01,2013-11-20 19:40:00,
2013-11-20 14:45:00,29.7,17.9,32.31,ENE,73,2.2,2.7,61,0.00,,---,0.00,VWS V14.01,2013-11-20 19:45:00,
2013-11-20 14:50:00,29.5,17.7,32.31,ENE,76,0.0,2.2,61,0.00,,---,0.00,VWS V14.01,2013-11-20 19:50:00,
2013-11-20 14:55:00,29.1,17.4,32.31,ENE,78,0.0,1.8,61,0.00,,---,0.00,VWS V14.01,2013-11-20 19:55:00,
2013-11-20 15:00:00,28.2,16.5,32.31,ENE,78,0.0,3.1,61,0.00,,---,0.00,VWS V14.01,2013-11-20 20:00:00,
2013-11-20 15:10:00,27.0,15.3,32.31,East,84,0.0,4.0,61,0.00,,---,0.00,VWS V14.01,2013-11-20 20:10:00,
2013-11-20 15:15:00,26.6,15.0,32.31,East,81,0.0,1.3,61,0.00,,---,0.00,VWS V14.01,2013-11-20 20:15:00,
2013-11-20 15:20:00,26.8,15.1,32.31,ENE,60,1.8,3.6,61,0.00,,---,0.00,VWS V14.01,2013-11-20 20:20:00,
2013-11-20 15:25:00,26.4,14.8,32.31,ENE,69,2.2,3.1,61,0.00,,---,0.00,VWS V14.01,2013-11-20 20:25:00,
2013-11-20 15:30:00,25.9,14.3,32.31,SE,138,0.0,3.6,61,0.00,,---,0.00,VWS V14.01,2013-11-20 20:30:00,
2013-11-20 15:35:00,25.2,14.0,32.31,SE,138,0.0,0.0,62,0.00,,---,0.00,VWS V14.01,2013-11-20 20:35:00,
2013-11-20 15:45:00,23.4,12.3,32.31,SE,138,0.0,1.8,62,0.00,,---,0.00,VWS V14.01,2013-11-20 20:45:00,
2013-11-20 15:50:00,22.8,11.8,32.31,SE,138,0.0,0.0,62,0.00,,---,0.00,VWS V14.01,2013-11-20 20:50:00,
2013-11-20 15:55:00,22.3,11.2,32.31,SE,138,0.0,0.0,62,0.00,,---,0.00,VWS V14.01,2013-11-20 20:55:00,
2013-11-20 16:00:00,21.6,10.9,32.31,SE,138,0.0,0.0,63,0.00,,---,0.00,VWS V14.01,2013-11-20 21:00:00,
2013-11-20 16:05:00,20.5,9.9,32.31,SE,138,0.0,0.0,63,0.00,,---,0.00,VWS V14.01,2013-11-20 21:05:00,
2013-11-20 16:15:00,19.2,8.7,32.31,NE,53,1.3,3.6,63,0.00,,---,0.00,VWS V14.01,2013-11-20 21:15:00,
2013-11-20 16:20:00,18.5,8.0,32.31,NE,52,0.9,3.1,63,0.00,,---,0.00,VWS V14.01,2013-11-20 21:20:00,
2013-11-20 16:25:00,18.0,7.5,32.31,NE,52,1.3,3.1,63,0.00,,---,0.00,VWS V14.01,2013-11-20 21:25:00,
2013-11-20 16:30:00,17.6,7.2,32.31,NE,52,1.8,2.2,63,0.00,,---,0.00,VWS V14.01,2013-11-20 21:30:00,
2013-11-20 16:35:00,17.1,6.7,32.31,NE,52,0.4,1.8,63,0.00,,---,0.00,VWS V14.01,2013-11-20 21:35:00,
2013-11-20 16:40:00,16.9,6.5,32.31,NE,52,0.0,2.2,63,0.00,,---,0.00,VWS V14.01,2013-11-20 21:40:00,
2013-11-20 16:50:00,16.2,6.8,32.31,NE,52,0.0,2.2,66,0.00,,---,0.00,VWS V14.01,2013-11-20 21:50:00,
2013-11-20 16:55:00,16.0,6.6,32.31,NE,52,0.0,0.0,66,0.00,,---,0.00,VWS V14.01,2013-11-20 21:55:00,
2013-11-20 17:00:00,15.6,6.9,32.31,NE,53,0.9,2.2,68,0.00,,---,0.00,VWS V14.01,2013-11-20 22:00:00,
2013-11-20 17:05:00,15.6,6.3,32.31,NE,52,0.0,1.8,66,0.00,,---,0.00,VWS V14.01,2013-11-20 22:05:00,
2013-11-20 17:15:00,15.3,7.6,32.31,NE,56,0.0,2.2,71,0.00,,---,0.00,VWS V14.01,2013-11-20 22:15:00,
2013-11-20 17:20:00,14.9,8.1,32.31,NE,53,0.9,1.8,74,0.00,,---,0.00,VWS V14.01,2013-11-20 22:20:00,
2013-11-20 17:25:00,15.1,8.0,32.31,NE,52,1.8,2.2,73,0.00,,---,0.00,VWS V14.01,2013-11-20 22:25:00,
2013-11-20 17:30:00,15.1,8.3,32.31,NE,52,2.2,2.2,74,0.00,,---,0.00,VWS V14.01,2013-11-20 22:30:00,
2013-11-20 17:35:00,15.1,8.3,32.31,NE,52,0.4,2.2,74,0.00,,---,0.00,VWS V14.01,2013-11-20 22:35:00,
2013-11-20 17:40:00,14.9,8.1,32.31,NE,53,0.0,0.9,74,0.00,,---,0.00,VWS V14.01,2013-11-20 22:40:00,
2013-11-20 17:45:00,14.7,8.2,32.31,NE,52,0.0,0.4,75,0.00,,---,0.00,VWS V14.01,2013-11-20 22:45:00,
2013-11-20 17:50:00,15.3,8.5,32.31,NE,52,0.0,0.0,74,0.00,,---,0.00,VWS V14.01,2013-11-20 22:50:00,
2013-11-20 17:55:00,15.6,8.5,32.31,NE,52,0.0,0.0,73,0.00,,---,0.00,VWS V14.01,2013-11-20 22:55:00,
2013-11-20 18:05:00,15.1,8.0,32.31,NE,52,2.2,2.2,73,0.00,,---,0.00,VWS V14.01,2013-11-20 23:05:00,
2013-11-20 18:10:00,14.5,7.8,32.31,NE,52,0.0,2.2,74,0.00,,---,0.00,VWS V14.01,2013-11-20 23:10:00,
2013-11-20 18:15:00,14.7,7.9,32.31,NE,50,1.8,2.2,74,0.00,,---,0.00,VWS V14.01,2013-11-20 23:15:00,
2013-11-20 18:25:00,16.7,7.3,32.31,West,260,4.5,5.4,66,0.00,,---,0.00,VWS V14.01,2013-11-20 23:25:00,
2013-11-20 18:30:00,18.0,7.5,32.31,South,181,3.1,7.2,63,0.00,,---,0.00,VWS V14.01,2013-11-20 23:30:00,
2013-11-20 18:35:00,18.9,8.4,32.31,SSE,149,1.3,6.3,63,0.00,,---,0.00,VWS V14.01,2013-11-20 23:35:00,
2013-11-20 18:40:00,18.9,8.4,32.31,SSE,147,2.2,3.1,63,0.00,,---,0.00,VWS V14.01,2013-11-20 23:40:00,
2013-11-20 18:50:00,17.6,7.2,32.31,SE,146,0.0,2.2,63,0.00,,---,0.00,VWS V14.01,2013-11-20 23:50:00,
2013-11-20 19:00:00,15.6,5.3,32.31,SSE,147,0.0,0.9,63,0.00,,---,0.00,VWS V14.01,2013-11-21 00:00:00,
2013-11-20 19:05:00,15.4,5.1,32.31,SSE,147,0.0,0.4,63,0.00,,---,0.00,VWS V14.01,2013-11-21 00:05:00,
2013-11-20 19:10:00,14.7,4.8,32.31,SSE,147,0.0,1.3,64,0.00,,---,0.00,VWS V14.01,2013-11-21 00:10:00,
2013-11-20 19:15:00,15.1,4.8,32.31,SSE,147,0.4,1.3,63,0.00,,---,0.00,VWS V14.01,2013-11-21 00:15:00,
2013-11-20 19:20:00,15.1,4.8,32.31,SSE,147,0.0,1.3,63,0.00,,---,0.00,VWS V14.01,2013-11-21 00:20:00,
2013-11-20 19:25:00,15.8,5.4,32.31,SE,146,3.1,5.4,63,0.00,,---,0.00,VWS V14.01,2013-11-21 00:25:00,
2013-11-20 19:35:00,19.6,9.1,32.31,SE,139,3.1,6.7,63,0.00,,---,0.00,VWS V14.01,2013-11-21 00:35:00,
2013-11-20 19:40:00,19.4,8.9,32.31,SE,140,3.6,5.8,63,0.00,,---,0.00,VWS V14.01,2013-11-21 00:40:00,
2013-11-20 19:45:00,18.1,7.7,32.31,South,174,5.4,6.3,63,0.00,,---,0.00,VWS V14.01,2013-11-21 00:45:00,
2013-11-20 19:50:00,18.7,8.2,32.31,South,173,2.2,6.7,63,0.00,,---,0.00,VWS V14.01,2013-11-21 00:50:00,
2013-11-20 19:55:00,18.1,7.7,32.31,SSE,150,4.0,5.4,63,0.00,,---,0.00,VWS V14.01,2013-11-21 00:55:00,
2013-11-20 20:05:00,17.6,7.2,32.31,SSE,150,0.0,0.0,63,0.00,,---,0.00,VWS V14.01,2013-11-21 01:05:00,
2013-11-20 20:10:00,16.5,6.1,32.31,SSE,149,3.6,3.6,63,0.00,,---,0.00,VWS V14.01,2013-11-21 01:10:00,
2013-11-20 20:15:00,16.0,5.6,32.31,SSE,147,0.9,4.5,63,0.00,,---,0.00,VWS V14.01,2013-11-21 01:15:00,
2013-11-20 20:20:00,16.0,5.6,32.31,SSE,147,3.1,3.1,63,0.00,,---,0.00,VWS V14.01,2013-11-21 01:20:00,
2013-11-20 20:25:00,16.3,6.0,32.31,SE,145,1.3,3.6,63,0.00,,---,0.00,VWS V14.01,2013-11-21 01:25:00,
2013-11-20 20:30:00,17.6,7.2,32.31,SE,140,2.2,4.9,63,0.00,,---,0.00,VWS V14.01,2013-11-21 01:30:00,
2013-11-20 20:35:00,17.6,7.2,32.31,SE,136,3.1,4.5,63,0.00,,---,0.00,VWS V14.01,2013-11-21 01:35:00,
2013-11-20 20:45:00,16.7,6.3,32.31,SSE,167,1.8,4.9,63,0.00,,---,0.00,VWS V14.01,2013-11-21 01:45:00,
2013-11-20 20:50:00,16.2,5.8,32.31,SSE,163,1.8,4.5,63,0.00,,---,0.00,VWS V14.01,2013-11-21 01:50:00,
2013-11-20 20:55:00,16.0,5.6,32.31,SSE,166,1.3,4.5,63,0.00,,---,0.00,VWS V14.01,2013-11-21 01:55:00,
2013-11-20 21:00:00,16.2,5.8,32.31,South,169,3.1,4.9,63,0.00,,---,0.00,VWS V14.01,2013-11-21 02:00:00,
2013-11-20 21:05:00,16.0,5.6,32.31,SSE,167,1.8,4.0,63,0.00,,---,0.00,VWS V14.01,2013-11-21 02:05:00,
2013-11-20 21:15:00,16.2,5.8,32.31,South,184,4.0,5.8,63,0.00,,---,0.00,VWS V14.01,2013-11-21 02:15:00,
2013-11-20 21:20:00,16.5,6.1,32.31,South,187,4.9,5.8,63,0.00,,---,0.00,VWS V14.01,2013-11-21 02:20:00,
2013-11-20 21:25:00,16.7,6.3,32.31,South,190,4.0,5.8,63,0.00,,---,0.00,VWS V14.01,2013-11-21 02:25:00,
2013-11-20 21:30:00,16.9,6.5,32.31,South,191,2.7,4.5,63,0.00,,---,0.00,VWS V14.01,2013-11-21 02:30:00,
2013-11-20 21:35:00,16.5,6.1,32.31,South,191,1.8,4.0,63,0.00,,---,0.00,VWS V14.01,2013-11-21 02:35:00,
2013-11-20 21:40:00,16.2,5.8,32.31,South,191,0.0,2.7,63,0.00,,---,0.00,VWS V14.01,2013-11-21 02:40:00,
2013-11-20 21:45:00,16.2,5.8,32.31,SSE,153,0.0,4.0,63,0.00,,---,0.00,VWS V14.01,2013-11-21 02:45:00,
2013-11-20 21:50:00,15.8,5.4,32.31,SE,146,2.2,4.0,63,0.00,,---,0.00,VWS V14.01,2013-11-21 02:50:00,
2013-11-20 22:00:00,16.0,5.6,32.31,SSE,147,1.8,3.1,63,0.00,,---,0.00,VWS V14.01,2013-11-21 03:00:00,
2013-11-20 22:05:00,15.1,4.8,32.31,SE,146,2.7,3.1,63,0.00,,---,0.00,VWS V14.01,2013-11-21 03:05:00,
2013-11-20 22:10:00,14.9,4.9,32.31,SSE,147,2.7,3.6,64,0.00,,---,0.00,VWS V14.01,2013-11-21 03:10:00,
2013-11-20 22:15:00,14.9,4.9,32.31,South,173,2.7,4.0,64,0.00,,---,0.00,VWS V14.01,2013-11-21 03:15:00,
2013-11-20 22:20:00,14.9,4.9,32.31,South,180,4.5,4.5,64,0.00,,---,0.00,VWS V14.01,2013-11-21 03:20:00,
2013-11-20 22:25:00,15.1,4.8,32.31,South,187,4.0,4.9,63,0.00,,---,0.00,VWS V14.01,2013-11-21 03:25:00,
2013-11-20 22:30:00,15.4,5.1,32.31,South,191,4.9,5.8,63,0.00,,---,0.00,VWS V14.01,2013-11-21 03:30:00,
2013-11-20 22:40:00,16.7,6.3,32.31,SSW,192,4.0,4.9,63,0.00,,---,0.00,VWS V14.01,2013-11-21 03:40:00,
2013-11-20 22:45:00,16.5,6.1,32.31,SSW,194,5.8,6.3,63,0.00,,---,0.00,VWS V14.01,2013-11-21 03:45:00,
2013-11-20 22:50:00,16.3,6.0,32.31,SSW,197,6.3,7.2,63,0.00,,---,0.00,VWS V14.01,2013-11-21 03:50:00,
2013-11-20 22:55:00,16.5,6.1,32.31,South,191,6.3,8.1,63,0.00,,---,0.00,VWS V14.01,2013-11-21 03:55:00,
2013-11-20 23:00:00,16.2,5.8,32.31,South,181,5.8,7.6,63,0.00,,---,0.00,VWS V14.01,2013-11-21 04:00:00,
2013-11-20 23:05:00,16.2,5.8,32.31,South,191,5.4,7.6,63,0.00,,---,0.00,VWS V14.01,2013-11-21 04:05:00,
2013-11-20 23:10:00,16.5,6.1,32.31,SSW,195,4.9,6.7,63,0.00,,---,0.00,VWS V14.01,2013-11-21 04:10:00,
2013-11-20 23:20:00,16.5,6.1,32.31,SSW,192,6.7,8.1,63,0.00,,---,0.00,VWS V14.01,2013-11-21 04:20:00,
2013-11-20 23:25:00,16.7,6.3,32.31,SSW,200,6.7,9.8,63,0.00,,---,0.00,VWS V14.01,2013-11-21 04:25:00,
2013-11-20 23:30:00,16.3,6.0,32.31,South,188,7.2,9.8,63,0.00,,---,0.00,VWS V14.01,2013-11-21 04:30:00,
2013-11-20 23:35:00,16.2,5.8,32.31,South,191,6.3,9.4,63,0.00,,---,0.00,VWS V14.01,2013-11-21 04:35:00,
2013-11-20 23:40:00,15.6,5.3,32.31,SSE,167,3.6,8.1,63,0.00,,---,0.00,VWS V14.01,2013-11-21 04:40:00,
2013-11-20 23:45:00,15.1,4.8,32.31,South,169,3.6,6.7,63,0.00,,---,0.00,VWS V14.01,2013-11-21 04:45:00,
2013-11-20 23:55:00,15.3,4.9,32.31,South,171,3.6,6.3,63,0.00,,---,0.00,VWS V14.01,2013-11-21 04:55:00,